sensor_id;sensor_type;location;lat;lon;timestamp;temperature;humidity
12602;DHT22;30282;16.436;99.370;2023-02-15T00:01:28;22.50;99.90
12602;DHT22;30282;16.436;99.370;2023-02-15T00:03:59;22.40;99.90
12602;DHT22;30282;16.436;99.370;2023-02-15T00:06:30;22.50;99.90
12602;DHT22;30282;16.436;99.370;2023-02-15T00:08:59;22.50;99.90
12602;DHT22;30282;16.436;99.370;2023-02-15T00:11:28;22.50;99.90
12602;DHT22;30282;16.436;99.370;2023-02-15T00:14:11;22.60;99.90
12602;DHT22;30282;16.436;99.370;2023-02-15T00:16:41;22.60;99.90
12602;DHT22;30282;16.436;99.370;2023-02-15T00:19:12;22.60;99.90
12602;DHT22;30282;16.436;99.370;2023-02-15T00:21:43;22.60;99.90
12602;DHT22;30282;16.436;99.370;2023-02-15T00:24:14;22.60;99.90
12602;DHT22;30282;16.436;99.370;2023-02-15T00:26:47;22.70;99.90
12602;DHT22;30282;16.436;99.370;2023-02-15T00:29:16;22.70;99.90
12602;DHT22;30282;16.436;99.370;2023-02-15T00:31:46;22.70;99.90
12602;DHT22;30282;16.436;99.370;2023-02-15T00:34:18;22.60;99.90
12602;DHT22;30282;16.436;99.370;2023-02-15T00:36:48;22.60;99.90
12602;DHT22;30282;16.436;99.370;2023-02-15T00:39:17;22.70;99.90
12602;DHT22;30282;16.436;99.370;2023-02-15T00:41:47;22.60;99.90
12602;DHT22;30282;16.436;99.370;2023-02-15T00:44:16;22.50;99.90
12602;DHT22;30282;16.436;99.370;2023-02-15T00:46:45;22.50;99.90
12602;DHT22;30282;16.436;99.370;2023-02-15T00:49:16;22.50;99.90
12602;DHT22;30282;16.436;99.370;2023-02-15T00:51:45;22.50;99.90
12602;DHT22;30282;16.436;99.370;2023-02-15T00:54:14;22.60;99.90
12602;DHT22;30282;16.436;99.370;2023-02-15T00:56:42;22.70;99.90
12602;DHT22;30282;16.436;99.370;2023-02-15T00:59:12;22.80;99.90
12602;DHT22;30282;16.436;99.370;2023-02-15T01:01:41;22.90;99.90
12602;DHT22;30282;16.436;99.370;2023-02-15T01:04:10;22.90;99.90
12602;DHT22;30282;16.436;99.370;2023-02-15T01:06:40;23.00;99.90
12602;DHT22;30282;16.436;99.370;2023-02-15T01:09:09;23.00;99.90
12602;DHT22;30282;16.436;99.370;2023-02-15T01:11:40;23.00;99.90
12602;DHT22;30282;16.436;99.370;2023-02-15T01:14:09;23.10;99.90
12602;DHT22;30282;16.436;99.370;2023-02-15T01:16:38;23.30;99.90
12602;DHT22;30282;16.436;99.370;2023-02-15T01:19:07;23.40;99.90
12602;DHT22;30282;16.436;99.370;2023-02-15T01:21:36;23.60;99.90
12602;DHT22;30282;16.436;99.370;2023-02-15T01:24:12;23.80;99.90
12602;DHT22;30282;16.436;99.370;2023-02-15T01:26:41;23.90;99.90
12602;DHT22;30282;16.436;99.370;2023-02-15T01:29:10;24.00;99.90
12602;DHT22;30282;16.436;99.370;2023-02-15T01:31:39;24.20;99.90
12602;DHT22;30282;16.436;99.370;2023-02-15T01:34:08;24.30;99.90
12602;DHT22;30282;16.436;99.370;2023-02-15T01:36:37;24.40;99.90
12602;DHT22;30282;16.436;99.370;2023-02-15T01:39:06;24.50;99.90
12602;DHT22;30282;16.436;99.370;2023-02-15T01:41:38;24.70;99.90
12602;DHT22;30282;16.436;99.370;2023-02-15T01:47:10;24.90;99.90
12602;DHT22;30282;16.436;99.370;2023-02-15T01:49:41;25.00;99.90
12602;DHT22;30282;16.436;99.370;2023-02-15T01:52:14;25.10;99.90
12602;DHT22;30282;16.436;99.370;2023-02-15T01:54:45;25.30;99.90
12602;DHT22;30282;16.436;99.370;2023-02-15T01:57:21;25.40;99.90
12602;DHT22;30282;16.436;99.370;2023-02-15T01:59:55;25.50;99.90
12602;DHT22;30282;16.436;99.370;2023-02-15T02:02:25;25.70;99.90
12602;DHT22;30282;16.436;99.370;2023-02-15T02:04:56;25.70;99.90
12602;DHT22;30282;16.436;99.370;2023-02-15T02:07:28;25.90;99.90
12602;DHT22;30282;16.436;99.370;2023-02-15T02:10:01;26.00;99.90
12602;DHT22;30282;16.436;99.370;2023-02-15T02:12:32;26.10;99.90
12602;DHT22;30282;16.436;99.370;2023-02-15T02:15:02;26.20;99.90
12602;DHT22;30282;16.436;99.370;2023-02-15T02:17:45;26.20;99.90
12602;DHT22;30282;16.436;99.370;2023-02-15T02:20:38;26.20;99.90
12602;DHT22;30282;16.436;99.370;2023-02-15T02:23:27;26.30;99.90
12602;DHT22;30282;16.436;99.370;2023-02-15T02:26:36;26.50;99.90
12602;DHT22;30282;16.436;99.370;2023-02-15T02:29:45;26.60;99.90
12602;DHT22;30282;16.436;99.370;2023-02-15T02:32:52;26.60;99.90
12602;DHT22;30282;16.436;99.370;2023-02-15T02:35:30;26.70;99.90
12602;DHT22;30282;16.436;99.370;2023-02-15T02:38:07;26.90;99.90
12602;DHT22;30282;16.436;99.370;2023-02-15T02:40:47;27.00;99.90
12602;DHT22;30282;16.436;99.370;2023-02-15T02:43:20;27.20;99.90
12602;DHT22;30282;16.436;99.370;2023-02-15T02:45:55;27.40;99.90
12602;DHT22;30282;16.436;99.370;2023-02-15T02:48:29;27.40;99.90
12602;DHT22;30282;16.436;99.370;2023-02-15T02:50:59;27.50;99.90
12602;DHT22;30282;16.436;99.370;2023-02-15T02:53:30;27.60;99.90
12602;DHT22;30282;16.436;99.370;2023-02-15T02:56:03;27.50;99.90
12602;DHT22;30282;16.436;99.370;2023-02-15T02:58:39;27.60;99.90
12602;DHT22;30282;16.436;99.370;2023-02-15T03:01:13;27.60;99.90
12602;DHT22;30282;16.436;99.370;2023-02-15T03:03:48;27.70;99.90
12602;DHT22;30282;16.436;99.370;2023-02-15T03:06:21;27.90;99.90
12602;DHT22;30282;16.436;99.370;2023-02-15T03:09:01;28.10;99.90
12602;DHT22;30282;16.436;99.370;2023-02-15T03:11:32;28.30;99.90
12602;DHT22;30282;16.436;99.370;2023-02-15T03:14:01;28.40;99.90
12602;DHT22;30282;16.436;99.370;2023-02-15T03:16:30;28.60;99.90
12602;DHT22;30282;16.436;99.370;2023-02-15T03:19:05;28.60;99.90
12602;DHT22;30282;16.436;99.370;2023-02-15T03:21:39;28.70;99.90
12602;DHT22;30282;16.436;99.370;2023-02-15T03:24:19;28.70;99.90
12602;DHT22;30282;16.436;99.370;2023-02-15T03:26:51;28.70;99.90
12602;DHT22;30282;16.436;99.370;2023-02-15T03:29:22;28.70;99.90
12602;DHT22;30282;16.436;99.370;2023-02-15T03:31:56;28.70;99.90
12602;DHT22;30282;16.436;99.370;2023-02-15T03:34:29;28.80;99.90
12602;DHT22;30282;16.436;99.370;2023-02-15T03:37:03;28.90;99.90
12602;DHT22;30282;16.436;99.370;2023-02-15T03:39:35;29.00;99.90
12602;DHT22;30282;16.436;99.370;2023-02-15T03:42:10;29.10;99.90
12602;DHT22;30282;16.436;99.370;2023-02-15T03:44:47;29.20;99.90
12602;DHT22;30282;16.436;99.370;2023-02-15T03:47:22;29.20;99.90
12602;DHT22;30282;16.436;99.370;2023-02-15T03:49:56;29.40;99.90
12602;DHT22;30282;16.436;99.370;2023-02-15T03:52:28;29.60;99.90
12602;DHT22;30282;16.436;99.370;2023-02-15T03:54:57;29.70;99.90
12602;DHT22;30282;16.436;99.370;2023-02-15T03:57:27;29.80;99.90
12602;DHT22;30282;16.436;99.370;2023-02-15T04:00:15;29.80;99.90
12602;DHT22;30282;16.436;99.370;2023-02-15T04:03:09;29.90;99.90
12602;DHT22;30282;16.436;99.370;2023-02-15T04:05:42;30.00;99.90
12602;DHT22;30282;16.436;99.370;2023-02-15T04:08:12;30.00;99.90
12602;DHT22;30282;16.436;99.370;2023-02-15T04:10:41;29.90;99.90
12602;DHT22;30282;16.436;99.370;2023-02-15T04:13:22;29.90;99.90
12602;DHT22;30282;16.436;99.370;2023-02-15T04:15:54;30.00;99.90
12602;DHT22;30282;16.436;99.370;2023-02-15T04:18:32;30.10;99.90
12602;DHT22;30282;16.436;99.370;2023-02-15T04:21:20;30.30;99.90
12602;DHT22;30282;16.436;99.370;2023-02-15T04:24:06;30.40;99.90
12602;DHT22;30282;16.436;99.370;2023-02-15T04:26:51;30.40;99.90
12602;DHT22;30282;16.436;99.370;2023-02-15T04:29:21;30.40;99.90
12602;DHT22;30282;16.436;99.370;2023-02-15T04:31:50;30.40;99.90
12602;DHT22;30282;16.436;99.370;2023-02-15T04:34:19;30.40;99.90
12602;DHT22;30282;16.436;99.370;2023-02-15T04:36:50;30.40;99.90
12602;DHT22;30282;16.436;99.370;2023-02-15T04:39:21;30.30;99.90
12602;DHT22;30282;16.436;99.370;2023-02-15T04:41:55;30.20;99.90
12602;DHT22;30282;16.436;99.370;2023-02-15T04:44:24;30.20;99.90
12602;DHT22;30282;16.436;99.370;2023-02-15T04:46:56;30.10;99.90
12602;DHT22;30282;16.436;99.370;2023-02-15T04:49:24;30.00;99.90
12602;DHT22;30282;16.436;99.370;2023-02-15T04:51:55;30.00;99.90
12602;DHT22;30282;16.436;99.370;2023-02-15T04:54:24;30.00;99.90
12602;DHT22;30282;16.436;99.370;2023-02-15T04:56:53;30.00;99.90
12602;DHT22;30282;16.436;99.370;2023-02-15T04:59:22;30.10;99.90
12602;DHT22;30282;16.436;99.370;2023-02-15T05:01:51;30.00;99.90
12602;DHT22;30282;16.436;99.370;2023-02-15T05:04:19;30.00;99.90
12602;DHT22;30282;16.436;99.370;2023-02-15T05:06:48;30.00;99.90
12602;DHT22;30282;16.436;99.370;2023-02-15T05:09:19;29.90;99.90
12602;DHT22;30282;16.436;99.370;2023-02-15T05:11:49;29.80;99.90
12602;DHT22;30282;16.436;99.370;2023-02-15T05:14:18;29.80;99.90
12602;DHT22;30282;16.436;99.370;2023-02-15T05:16:47;29.70;99.90
12602;DHT22;30282;16.436;99.370;2023-02-15T05:19:16;29.70;99.90
12602;DHT22;30282;16.436;99.370;2023-02-15T05:21:45;29.70;99.90
12602;DHT22;30282;16.436;99.370;2023-02-15T05:24:14;29.70;99.90
12602;DHT22;30282;16.436;99.370;2023-02-15T05:27:02;29.70;99.90
12602;DHT22;30282;16.436;99.370;2023-02-15T05:29:48;29.70;99.90
12602;DHT22;30282;16.436;99.370;2023-02-15T05:32:17;29.80;99.90
12602;DHT22;30282;16.436;99.370;2023-02-15T05:34:47;29.90;99.90
12602;DHT22;30282;16.436;99.370;2023-02-15T05:37:16;30.00;99.90
12602;DHT22;30282;16.436;99.370;2023-02-15T05:39:45;30.10;99.90
12602;DHT22;30282;16.436;99.370;2023-02-15T05:42:16;30.40;99.90
12602;DHT22;30282;16.436;99.370;2023-02-15T05:44:45;30.50;99.90
12602;DHT22;30282;16.436;99.370;2023-02-15T05:47:15;30.70;99.90
12602;DHT22;30282;16.436;99.370;2023-02-15T05:49:47;30.70;99.90
12602;DHT22;30282;16.436;99.370;2023-02-15T05:52:16;30.60;99.90
12602;DHT22;30282;16.436;99.370;2023-02-15T05:54:45;30.50;99.90
12602;DHT22;30282;16.436;99.370;2023-02-15T05:57:16;30.50;99.90
12602;DHT22;30282;16.436;99.370;2023-02-15T05:59:45;30.50;99.90
12602;DHT22;30282;16.436;99.370;2023-02-15T06:02:14;30.60;99.90
12602;DHT22;30282;16.436;99.370;2023-02-15T06:04:43;30.60;99.90
12602;DHT22;30282;16.436;99.370;2023-02-15T06:07:12;30.50;99.90
12602;DHT22;30282;16.436;99.370;2023-02-15T06:09:41;30.50;99.90
12602;DHT22;30282;16.436;99.370;2023-02-15T06:12:10;30.50;99.90
12602;DHT22;30282;16.436;99.370;2023-02-15T06:14:41;30.50;99.90
12602;DHT22;30282;16.436;99.370;2023-02-15T06:17:10;30.60;99.90
12602;DHT22;30282;16.436;99.370;2023-02-15T06:19:39;30.50;99.90
12602;DHT22;30282;16.436;99.370;2023-02-15T06:22:08;30.50;99.90
12602;DHT22;30282;16.436;99.370;2023-02-15T06:24:37;30.40;99.90
12602;DHT22;30282;16.436;99.370;2023-02-15T06:27:06;30.60;99.90
12602;DHT22;30282;16.436;99.370;2023-02-15T06:29:36;30.70;99.90
12602;DHT22;30282;16.436;99.370;2023-02-15T06:32:07;30.90;99.90
12602;DHT22;30282;16.436;99.370;2023-02-15T06:34:36;31.10;99.90
12602;DHT22;30282;16.436;99.370;2023-02-15T06:37:05;31.10;99.90
12602;DHT22;30282;16.436;99.370;2023-02-15T06:39:34;31.10;99.90
12602;DHT22;30282;16.436;99.370;2023-02-15T06:42:04;31.00;99.90
12602;DHT22;30282;16.436;99.370;2023-02-15T06:44:33;30.90;99.90
12602;DHT22;30282;16.436;99.370;2023-02-15T06:47:02;30.70;99.90
12602;DHT22;30282;16.436;99.370;2023-02-15T06:49:32;30.60;99.90
12602;DHT22;30282;16.436;99.370;2023-02-15T06:52:03;30.60;99.90
12602;DHT22;30282;16.436;99.370;2023-02-15T06:54:32;30.70;99.90
12602;DHT22;30282;16.436;99.370;2023-02-15T06:57:01;30.80;99.90
12602;DHT22;30282;16.436;99.370;2023-02-15T06:59:30;30.80;99.90
12602;DHT22;30282;16.436;99.370;2023-02-15T07:01:59;30.70;99.90
12602;DHT22;30282;16.436;99.370;2023-02-15T07:04:28;30.60;99.90
12602;DHT22;30282;16.436;99.370;2023-02-15T07:06:58;30.50;99.90
12602;DHT22;30282;16.436;99.370;2023-02-15T07:09:27;30.50;99.90
12602;DHT22;30282;16.436;99.370;2023-02-15T07:11:56;30.50;99.90
12602;DHT22;30282;16.436;99.370;2023-02-15T07:14:42;30.40;99.90
12602;DHT22;30282;16.436;99.370;2023-02-15T07:17:11;30.50;99.90
12602;DHT22;30282;16.436;99.370;2023-02-15T07:19:40;30.50;99.90
12602;DHT22;30282;16.436;99.370;2023-02-15T07:22:11;30.60;99.90
12602;DHT22;30282;16.436;99.370;2023-02-15T07:24:40;30.60;99.90
12602;DHT22;30282;16.436;99.370;2023-02-15T07:27:09;30.60;99.90
12602;DHT22;30282;16.436;99.370;2023-02-15T07:29:38;30.50;99.90
12602;DHT22;30282;16.436;99.370;2023-02-15T07:32:07;30.30;99.90
12602;DHT22;30282;16.436;99.370;2023-02-15T07:34:36;30.20;99.90
12602;DHT22;30282;16.436;99.370;2023-02-15T07:37:05;30.20;99.90
12602;DHT22;30282;16.436;99.370;2023-02-15T07:39:36;30.20;99.90
12602;DHT22;30282;16.436;99.370;2023-02-15T07:42:05;30.20;99.90
12602;DHT22;30282;16.436;99.370;2023-02-15T07:44:34;30.20;99.90
12602;DHT22;30282;16.436;99.370;2023-02-15T07:47:03;30.10;99.90
12602;DHT22;30282;16.436;99.370;2023-02-15T07:49:32;30.20;99.90
12602;DHT22;30282;16.436;99.370;2023-02-15T07:52:01;30.30;99.90
12602;DHT22;30282;16.436;99.370;2023-02-15T07:54:30;30.20;99.90
12602;DHT22;30282;16.436;99.370;2023-02-15T07:57:01;30.10;99.90
12602;DHT22;30282;16.436;99.370;2023-02-15T07:59:30;30.10;99.90
12602;DHT22;30282;16.436;99.370;2023-02-15T08:01:59;30.20;99.90
12602;DHT22;30282;16.436;99.370;2023-02-15T08:04:28;30.30;99.90
12602;DHT22;30282;16.436;99.370;2023-02-15T08:06:57;30.40;99.90
12602;DHT22;30282;16.436;99.370;2023-02-15T08:09:26;30.30;99.90
12602;DHT22;30282;16.436;99.370;2023-02-15T08:11:58;30.20;99.90
12602;DHT22;30282;16.436;99.370;2023-02-15T08:14:28;30.20;99.90
12602;DHT22;30282;16.436;99.370;2023-02-15T08:17:00;30.20;99.90
12602;DHT22;30282;16.436;99.370;2023-02-15T08:19:32;30.10;99.90
12602;DHT22;30282;16.436;99.370;2023-02-15T08:22:02;30.10;99.90
12602;DHT22;30282;16.436;99.370;2023-02-15T08:24:33;30.20;99.90
12602;DHT22;30282;16.436;99.370;2023-02-15T08:27:03;30.20;99.90
12602;DHT22;30282;16.436;99.370;2023-02-15T08:29:35;30.00;99.90
12602;DHT22;30282;16.436;99.370;2023-02-15T08:32:06;30.00;99.90
12602;DHT22;30282;16.436;99.370;2023-02-15T08:34:37;29.90;99.90
12602;DHT22;30282;16.436;99.370;2023-02-15T08:37:07;29.90;99.90
12602;DHT22;30282;16.436;99.370;2023-02-15T08:39:36;29.90;99.90
12602;DHT22;30282;16.436;99.370;2023-02-15T08:42:05;29.90;99.90
12602;DHT22;30282;16.436;99.370;2023-02-15T08:44:36;30.00;99.90
12602;DHT22;30282;16.436;99.370;2023-02-15T08:47:05;30.10;99.90
12602;DHT22;30282;16.436;99.370;2023-02-15T08:49:34;30.10;99.90
12602;DHT22;30282;16.436;99.370;2023-02-15T08:52:03;30.10;99.90
12602;DHT22;30282;16.436;99.370;2023-02-15T08:54:32;30.20;99.90
12602;DHT22;30282;16.436;99.370;2023-02-15T08:57:01;30.20;99.90
12602;DHT22;30282;16.436;99.370;2023-02-15T08:59:30;30.20;99.90
12602;DHT22;30282;16.436;99.370;2023-02-15T09:02:01;30.20;99.90
12602;DHT22;30282;16.436;99.370;2023-02-15T09:04:32;30.10;99.90
12602;DHT22;30282;16.436;99.370;2023-02-15T09:07:01;30.10;99.90
12602;DHT22;30282;16.436;99.370;2023-02-15T09:09:31;30.00;99.90
12602;DHT22;30282;16.436;99.370;2023-02-15T09:12:00;29.90;99.90
12602;DHT22;30282;16.436;99.370;2023-02-15T09:14:29;29.90;99.90
12602;DHT22;30282;16.436;99.370;2023-02-15T09:17:00;30.00;99.90
12602;DHT22;30282;16.436;99.370;2023-02-15T09:19:29;30.00;99.90
12602;DHT22;30282;16.436;99.370;2023-02-15T09:21:58;29.80;99.90
12602;DHT22;30282;16.436;99.370;2023-02-15T09:24:27;29.70;99.90
12602;DHT22;30282;16.436;99.370;2023-02-15T09:26:57;29.60;99.90
12602;DHT22;30282;16.436;99.370;2023-02-15T09:29:26;29.20;99.90
12602;DHT22;30282;16.436;99.370;2023-02-15T09:31:55;29.10;99.90
12602;DHT22;30282;16.436;99.370;2023-02-15T09:34:25;29.10;99.90
12602;DHT22;30282;16.436;99.370;2023-02-15T09:36:54;29.10;99.90
12602;DHT22;30282;16.436;99.370;2023-02-15T09:39:24;29.10;99.90
12602;DHT22;30282;16.436;99.370;2023-02-15T09:45:17;29.00;99.90
12602;DHT22;30282;16.436;99.370;2023-02-15T09:48:11;29.00;99.90
12602;DHT22;30282;16.436;99.370;2023-02-15T09:50:54;28.80;99.90
12602;DHT22;30282;16.436;99.370;2023-02-15T09:53:45;28.70;99.90
12602;DHT22;30282;16.436;99.370;2023-02-15T09:56:24;28.70;99.90
12602;DHT22;30282;16.436;99.370;2023-02-15T09:58:59;28.60;99.90
12602;DHT22;30282;16.436;99.370;2023-02-15T10:01:41;28.50;99.90
12602;DHT22;30282;16.436;99.370;2023-02-15T10:07:18;28.50;99.90
12602;DHT22;30282;16.436;99.370;2023-02-15T10:10:00;28.50;99.90
12602;DHT22;30282;16.436;99.370;2023-02-15T10:12:39;28.50;99.90
12602;DHT22;30282;16.436;99.370;2023-02-15T10:15:25;28.50;99.90
12602;DHT22;30282;16.436;99.370;2023-02-15T10:18:11;28.50;99.90
12602;DHT22;30282;16.436;99.370;2023-02-15T10:20:52;28.60;99.90
12602;DHT22;30282;16.436;99.370;2023-02-15T10:23:38;28.50;99.90
12602;DHT22;30282;16.436;99.370;2023-02-15T10:26:18;28.40;99.90
12602;DHT22;30282;16.436;99.370;2023-02-15T10:28:51;28.30;99.90
12602;DHT22;30282;16.436;99.370;2023-02-15T10:31:26;28.20;99.90
12602;DHT22;30282;16.436;99.370;2023-02-15T10:34:11;28.20;99.90
12602;DHT22;30282;16.436;99.370;2023-02-15T10:37:01;28.20;99.90
12602;DHT22;30282;16.436;99.370;2023-02-15T10:39:44;28.20;99.90
12602;DHT22;30282;16.436;99.370;2023-02-15T10:42:24;28.20;99.90
12602;DHT22;30282;16.436;99.370;2023-02-15T10:45:11;28.10;99.90
12602;DHT22;30282;16.436;99.370;2023-02-15T10:48:21;28.10;99.90
12602;DHT22;30282;16.436;99.370;2023-02-15T10:50:52;28.20;99.90
12602;DHT22;30282;16.436;99.370;2023-02-15T10:53:39;28.10;99.90
12602;DHT22;30282;16.436;99.370;2023-02-15T10:56:19;28.10;99.90
12602;DHT22;30282;16.436;99.370;2023-02-15T10:59:04;28.10;99.90
12602;DHT22;30282;16.436;99.370;2023-02-15T11:01:41;28.10;99.90
12602;DHT22;30282;16.436;99.370;2023-02-15T11:04:42;28.00;99.90
12602;DHT22;30282;16.436;99.370;2023-02-15T11:07:20;27.90;99.90
12602;DHT22;30282;16.436;99.370;2023-02-15T11:10:00;27.90;99.90
12602;DHT22;30282;16.436;99.370;2023-02-15T11:12:33;27.80;99.90
12602;DHT22;30282;16.436;99.370;2023-02-15T11:15:10;27.70;99.90
12602;DHT22;30282;16.436;99.370;2023-02-15T11:17:43;27.80;99.90
12602;DHT22;30282;16.436;99.370;2023-02-15T11:20:18;27.80;99.90
12602;DHT22;30282;16.436;99.370;2023-02-15T11:22:49;27.80;99.90
12602;DHT22;30282;16.436;99.370;2023-02-15T11:25:23;27.80;99.90
12602;DHT22;30282;16.436;99.370;2023-02-15T11:27:55;27.70;99.90
12602;DHT22;30282;16.436;99.370;2023-02-15T11:30:25;27.70;99.90
12602;DHT22;30282;16.436;99.370;2023-02-15T11:33:01;27.70;99.90
12602;DHT22;30282;16.436;99.370;2023-02-15T11:35:33;27.60;99.90
12602;DHT22;30282;16.436;99.370;2023-02-15T11:38:16;27.60;99.90
12602;DHT22;30282;16.436;99.370;2023-02-15T11:40:51;27.50;99.90
12602;DHT22;30282;16.436;99.370;2023-02-15T11:43:29;27.50;99.90
12602;DHT22;30282;16.436;99.370;2023-02-15T11:46:00;27.60;99.90
12602;DHT22;30282;16.436;99.370;2023-02-15T11:48:30;27.50;99.90
12602;DHT22;30282;16.436;99.370;2023-02-15T11:51:00;27.50;99.90
12602;DHT22;30282;16.436;99.370;2023-02-15T11:53:33;27.50;99.90
12602;DHT22;30282;16.436;99.370;2023-02-15T11:56:05;27.50;99.90
12602;DHT22;30282;16.436;99.370;2023-02-15T11:58:47;27.40;99.90
12602;DHT22;30282;16.436;99.370;2023-02-15T12:01:22;27.40;99.90
12602;DHT22;30282;16.436;99.370;2023-02-15T12:03:53;27.40;99.90
12602;DHT22;30282;16.436;99.370;2023-02-15T12:06:26;27.40;99.90
12602;DHT22;30282;16.436;99.370;2023-02-15T12:09:02;27.40;99.90
12602;DHT22;30282;16.436;99.370;2023-02-15T12:11:38;27.30;99.90
12602;DHT22;30282;16.436;99.370;2023-02-15T12:14:10;27.30;99.90
12602;DHT22;30282;16.436;99.370;2023-02-15T12:16:43;27.30;99.90
12602;DHT22;30282;16.436;99.370;2023-02-15T12:19:30;27.20;99.90
12602;DHT22;30282;16.436;99.370;2023-02-15T12:22:02;27.30;99.90
12602;DHT22;30282;16.436;99.370;2023-02-15T12:24:34;27.30;99.90
12602;DHT22;30282;16.436;99.370;2023-02-15T12:27:14;27.20;99.90
12602;DHT22;30282;16.436;99.370;2023-02-15T12:29:47;27.20;99.90
12602;DHT22;30282;16.436;99.370;2023-02-15T12:32:19;27.10;99.90
12602;DHT22;30282;16.436;99.370;2023-02-15T12:34:48;27.10;99.90
12602;DHT22;30282;16.436;99.370;2023-02-15T12:37:19;27.10;99.90
12602;DHT22;30282;16.436;99.370;2023-02-15T12:39:54;27.10;99.90
12602;DHT22;30282;16.436;99.370;2023-02-15T12:42:24;27.10;99.90
12602;DHT22;30282;16.436;99.370;2023-02-15T12:44:57;27.10;99.90
12602;DHT22;30282;16.436;99.370;2023-02-15T12:47:26;27.20;99.90
12602;DHT22;30282;16.436;99.370;2023-02-15T12:50:10;27.20;99.90
12602;DHT22;30282;16.436;99.370;2023-02-15T12:52:44;27.20;99.90
12602;DHT22;30282;16.436;99.370;2023-02-15T12:55:22;27.20;99.90
12602;DHT22;30282;16.436;99.370;2023-02-15T12:58:06;27.20;99.90
12602;DHT22;30282;16.436;99.370;2023-02-15T13:00:37;27.30;99.90
12602;DHT22;30282;16.436;99.370;2023-02-15T13:03:16;27.20;99.90
12602;DHT22;30282;16.436;99.370;2023-02-15T13:05:47;27.10;99.90
12602;DHT22;30282;16.436;99.370;2023-02-15T13:08:21;27.00;99.90
12602;DHT22;30282;16.436;99.370;2023-02-15T13:10:56;26.90;99.90
12602;DHT22;30282;16.436;99.370;2023-02-15T13:13:26;26.90;99.90
12602;DHT22;30282;16.436;99.370;2023-02-15T13:16:01;26.90;99.90
12602;DHT22;30282;16.436;99.370;2023-02-15T13:18:33;26.90;99.90
12602;DHT22;30282;16.436;99.370;2023-02-15T13:21:09;26.90;99.90
12602;DHT22;30282;16.436;99.370;2023-02-15T13:23:42;27.00;99.90
12602;DHT22;30282;16.436;99.370;2023-02-15T13:26:16;27.00;99.90
12602;DHT22;30282;16.436;99.370;2023-02-15T13:28:48;27.00;99.90
12602;DHT22;30282;16.436;99.370;2023-02-15T13:31:22;27.00;99.90
12602;DHT22;30282;16.436;99.370;2023-02-15T13:34:03;27.40;99.90
12602;DHT22;30282;16.436;99.370;2023-02-15T13:36:41;27.80;99.90
12602;DHT22;30282;16.436;99.370;2023-02-15T13:39:20;28.00;99.90
12602;DHT22;30282;16.436;99.370;2023-02-15T13:41:55;28.10;99.90
12602;DHT22;30282;16.436;99.370;2023-02-15T13:47:34;28.20;99.90
12602;DHT22;30282;16.436;99.370;2023-02-15T13:50:21;28.00;99.90
12602;DHT22;30282;16.436;99.370;2023-02-15T13:53:02;28.00;99.90
12602;DHT22;30282;16.436;99.370;2023-02-15T13:55:42;27.80;99.90
12602;DHT22;30282;16.436;99.370;2023-02-15T14:01:13;27.50;99.90
12602;DHT22;30282;16.436;99.370;2023-02-15T14:04:03;27.40;99.90
12602;DHT22;30282;16.436;99.370;2023-02-15T14:09:46;27.20;99.90
12602;DHT22;30282;16.436;99.370;2023-02-15T14:12:37;27.00;99.90
12602;DHT22;30282;16.436;99.370;2023-02-15T14:15:33;27.10;99.90
12602;DHT22;30282;16.436;99.370;2023-02-15T14:18:13;27.00;99.90
12602;DHT22;30282;16.436;99.370;2023-02-15T14:20:56;26.90;99.90
12602;DHT22;30282;16.436;99.370;2023-02-15T14:23:39;26.90;99.90
12602;DHT22;30282;16.436;99.370;2023-02-15T14:26:16;26.90;99.90
12602;DHT22;30282;16.436;99.370;2023-02-15T14:28:54;27.00;99.90
12602;DHT22;30282;16.436;99.370;2023-02-15T14:31:31;27.00;99.90
12602;DHT22;30282;16.436;99.370;2023-02-15T14:34:01;27.00;99.90
12602;DHT22;30282;16.436;99.370;2023-02-15T14:36:32;27.00;99.90
12602;DHT22;30282;16.436;99.370;2023-02-15T14:39:11;27.00;99.90
12602;DHT22;30282;16.436;99.370;2023-02-15T14:41:59;27.00;99.90
12602;DHT22;30282;16.436;99.370;2023-02-15T14:44:35;27.00;99.90
12602;DHT22;30282;16.436;99.370;2023-02-15T14:47:24;26.90;99.90
12602;DHT22;30282;16.436;99.370;2023-02-15T14:49:56;26.90;99.90
12602;DHT22;30282;16.436;99.370;2023-02-15T14:52:27;26.80;99.90
12602;DHT22;30282;16.436;99.370;2023-02-15T14:55:00;26.80;99.90
12602;DHT22;30282;16.436;99.370;2023-02-15T14:57:35;26.70;99.90
12602;DHT22;30282;16.436;99.370;2023-02-15T15:00:30;26.60;99.90
12602;DHT22;30282;16.436;99.370;2023-02-15T15:03:11;26.60;99.90
12602;DHT22;30282;16.436;99.370;2023-02-15T15:05:51;26.60;99.90
12602;DHT22;30282;16.436;99.370;2023-02-15T15:08:33;26.60;99.90
12602;DHT22;30282;16.436;99.370;2023-02-15T15:11:37;26.60;99.90
12602;DHT22;30282;16.436;99.370;2023-02-15T15:14:08;26.60;99.90
12602;DHT22;30282;16.436;99.370;2023-02-15T15:16:49;26.70;99.90
12602;DHT22;30282;16.436;99.370;2023-02-15T15:19:57;26.70;99.90
12602;DHT22;30282;16.436;99.370;2023-02-15T15:22:39;26.70;99.90
12602;DHT22;30282;16.436;99.370;2023-02-15T15:25:42;26.60;99.90
12602;DHT22;30282;16.436;99.370;2023-02-15T15:28:55;26.60;99.90
12602;DHT22;30282;16.436;99.370;2023-02-15T15:31:39;26.50;99.90
12602;DHT22;30282;16.436;99.370;2023-02-15T15:40:58;26.40;99.90
12602;DHT22;30282;16.436;99.370;2023-02-15T15:44:06;26.30;99.90
12602;DHT22;30282;16.436;99.370;2023-02-15T15:47:16;26.30;99.90
12602;DHT22;30282;16.436;99.370;2023-02-15T15:49:48;26.30;99.90
12602;DHT22;30282;16.436;99.370;2023-02-15T15:52:18;26.30;99.90
12602;DHT22;30282;16.436;99.370;2023-02-15T15:54:49;26.20;99.90
12602;DHT22;30282;16.436;99.370;2023-02-15T15:57:27;26.10;99.90
12602;DHT22;30282;16.436;99.370;2023-02-15T15:59:57;26.10;99.90
12602;DHT22;30282;16.436;99.370;2023-02-15T16:02:27;26.10;99.90
12602;DHT22;30282;16.436;99.370;2023-02-15T16:05:06;26.00;99.90
12602;DHT22;30282;16.436;99.370;2023-02-15T16:07:36;26.00;99.90
12602;DHT22;30282;16.436;99.370;2023-02-15T16:10:07;26.00;99.90
12602;DHT22;30282;16.436;99.370;2023-02-15T16:12:49;26.00;99.90
12602;DHT22;30282;16.436;99.370;2023-02-15T16:15:22;26.00;99.90
12602;DHT22;30282;16.436;99.370;2023-02-15T16:17:54;26.00;99.90
12602;DHT22;30282;16.436;99.370;2023-02-15T16:20:26;26.00;99.90
12602;DHT22;30282;16.436;99.370;2023-02-15T16:23:03;26.00;99.90
12602;DHT22;30282;16.436;99.370;2023-02-15T16:25:39;26.10;99.90